Time;durP1;ratioP1;P1;durP2;ratioP2;P2;SDS_P1;SDS_P2;PMS_P1;PMS_P2;Temp;Humidity;BMP_temperature;BMP_pressure;BME280_temperature;BME280_humidity;BME280_pressure;Samples;Min_cycle;Max_cycle;Signal;HPM_P1;HPM_P2
2022/07/06 00:01:52;;;;;;;2.95;2.55;;;14.50;99.90;;;;;;4924238;29;20086;-78
2022/07/06 00:04:21;;;;;;;4.05;2.63;;;14.70;99.90;;;;;;4918030;29;20560;-78
2022/07/06 00:06:47;;;;;;;4.68;2.50;;;14.80;99.90;;;;;;4949055;23;20047;-72
2022/07/06 00:09:13;;;;;;;3.20;2.15;;;15.00;99.90;;;;;;4955130;28;20027;-73
2022/07/06 00:11:39;;;;;;;2.75;2.03;;;15.10;99.90;;;;;;4955695;28;20098;-73
2022/07/06 00:14:06;;;;;;;3.78;2.00;;;15.20;99.90;;;;;;4955958;28;20110;-73
2022/07/06 00:16:32;;;;;;;1.77;1.67;;;15.20;99.90;;;;;;4955725;28;20031;-73
2022/07/06 00:18:57;;;;;;;1.60;1.48;;;15.20;99.90;;;;;;4956020;28;20022;-73
2022/07/06 00:21:23;;;;;;;2.53;1.60;;;15.20;99.90;;;;;;4955351;28;20511;-73
2022/07/06 00:23:51;;;;;;;4.38;1.90;;;15.20;99.90;;;;;;4955687;28;20038;-73
2022/07/06 00:26:18;;;;;;;3.80;1.67;;;15.20;99.90;;;;;;4955455;28;20062;-73
2022/07/06 00:28:43;;;;;;;3.00;1.77;;;15.20;99.90;;;;;;4955422;28;20035;-73
2022/07/06 00:31:09;;;;;;;1.95;1.50;;;15.20;99.90;;;;;;4955143;28;20588;-73
2022/07/06 00:33:35;;;;;;;2.83;1.30;;;15.20;99.90;;;;;;4955752;28;20023;-73
2022/07/06 00:36:01;;;;;;;1.50;1.27;;;15.20;99.90;;;;;;4955721;28;20050;-73
2022/07/06 00:38:27;;;;;;;2.40;1.33;;;15.20;99.90;;;;;;4950328;28;20026;-73
2022/07/06 00:40:52;;;;;;;1.17;0.93;;;15.30;99.90;;;;;;4955064;28;20078;-73
2022/07/06 00:43:18;;;;;;;1.30;1.20;;;15.10;99.90;;;;;;4955390;28;20031;-73
2022/07/06 00:45:44;;;;;;;1.98;1.83;;;15.10;99.90;;;;;;4955198;28;20100;-74
2022/07/06 00:48:10;;;;;;;2.45;1.30;;;15.00;99.90;;;;;;4955271;28;20025;-74
2022/07/06 00:50:36;;;;;;;0.77;0.73;;;15.00;99.90;;;;;;4955204;28;20027;-73
2022/07/06 00:53:07;;;;;;;1.83;1.20;;;14.90;99.90;;;;;;4954905;28;20019;-73
2022/07/06 00:55:36;;;;;;;3.90;1.20;;;14.90;99.90;;;;;;4955246;28;20031;-73
2022/07/06 00:58:03;;;;;;;1.52;1.00;;;14.80;99.90;;;;;;4955245;28;20027;-73
2022/07/06 01:00:30;;;;;;;1.05;0.77;;;14.80;99.90;;;;;;4955369;28;20019;-73
2022/07/06 01:02:57;;;;;;;1.20;1.10;;;14.70;99.90;;;;;;4954901;28;20038;-73
2022/07/06 01:05:23;;;;;;;2.40;0.90;;;14.70;99.90;;;;;;4954769;28;20059;-73
2022/07/06 01:07:52;;;;;;;1.88;1.00;;;14.60;99.90;;;;;;4962888;23;20052;-79
2022/07/06 01:10:19;;;;;;;1.75;0.90;;;14.60;99.90;;;;;;4942182;29;20023;-78
2022/07/06 01:12:46;;;;;;;1.05;0.75;;;14.50;99.90;;;;;;4934382;29;20031;-79
2022/07/06 01:15:18;;;;;;;1.52;1.08;;;14.40;99.90;;;;;;4947936;29;20539;-79
2022/07/06 01:17:44;;;;;;;3.47;1.25;;;14.30;99.90;;;;;;4933871;28;20583;-79
2022/07/06 01:20:10;;;;;;;1.42;1.10;;;14.20;99.90;;;;;;4934197;29;20038;-78
2022/07/06 01:22:36;;;;;;;2.42;1.05;;;14.20;99.90;;;;;;4934998;29;20031;-79
2022/07/06 01:25:02;;;;;;;3.00;0.90;;;14.10;99.90;;;;;;4935577;29;20024;-79
2022/07/06 01:27:29;;;;;;;4.25;1.20;;;14.20;99.90;;;;;;4933879;28;20449;-78
2022/07/06 01:29:55;;;;;;;1.20;1.00;;;14.10;99.90;;;;;;4935609;29;20111;-78
2022/07/06 01:32:20;;;;;;;0.80;0.80;;;14.10;99.90;;;;;;4935249;29;20111;-79
2022/07/06 01:34:46;;;;;;;1.35;1.20;;;14.00;99.90;;;;;;4935279;29;20111;-78
2022/07/06 01:37:12;;;;;;;1.52;1.20;;;13.90;99.90;;;;;;4939462;28;20086;-78
2022/07/06 01:39:38;;;;;;;1.92;1.20;;;13.90;99.90;;;;;;4934720;29;20083;-79
2022/07/06 01:42:04;;;;;;;2.47;1.60;;;13.90;99.90;;;;;;4935019;29;20075;-79
2022/07/06 01:44:30;;;;;;;2.70;1.10;;;13.80;99.90;;;;;;4935017;29;20096;-78
2022/07/06 01:46:56;;;;;;;1.77;1.30;;;13.80;99.90;;;;;;4934539;29;20127;-78
2022/07/06 01:49:21;;;;;;;4.20;1.42;;;13.80;99.90;;;;;;4935117;29;20028;-79
2022/07/06 01:51:47;;;;;;;2.70;1.20;;;13.80;99.90;;;;;;4934372;29;20456;-79
2022/07/06 01:54:13;;;;;;;2.05;1.35;;;13.80;99.90;;;;;;4935035;29;20027;-78
2022/07/06 01:56:39;;;;;;;2.20;1.30;;;13.90;99.90;;;;;;4934688;29;20040;-78
2022/07/06 01:59:04;;;;;;;2.28;1.23;;;13.80;99.90;;;;;;4934786;29;20034;-78
2022/07/06 02:01:30;;;;;;;1.92;1.10;;;13.70;99.90;;;;;;4934863;29;20086;-78
2022/07/06 02:03:56;;;;;;;2.65;1.45;;;13.70;99.90;;;;;;4934539;29;20075;-78
2022/07/06 02:06:22;;;;;;;3.58;1.80;;;13.70;99.90;;;;;;4966319;23;20085;-72
2022/07/06 02:08:47;;;;;;;2.15;1.35;;;13.60;99.90;;;;;;4992404;28;20101;-73
2022/07/06 02:11:13;;;;;;;4.07;1.38;;;13.50;99.90;;;;;;4992261;28;20026;-73
2022/07/06 02:13:39;;;;;;;1.65;1.50;;;13.30;99.90;;;;;;4992296;28;20029;-73
2022/07/06 02:16:05;;;;;;;1.65;1.40;;;13.10;99.90;;;;;;4992446;28;20130;-73
2022/07/06 02:18:31;;;;;;;1.80;1.40;;;12.90;99.90;;;;;;4992355;28;20479;-73
2022/07/06 02:20:57;;;;;;;2.78;1.67;;;12.70;99.90;;;;;;4992034;28;20018;-73
2022/07/06 02:23:22;;;;;;;2.53;1.15;;;12.60;99.90;;;;;;4991996;28;20029;-73
2022/07/06 02:25:48;;;;;;;2.40;1.45;;;12.40;99.90;;;;;;4991027;28;20026;-73
2022/07/06 02:28:14;;;;;;;1.73;1.50;;;12.40;99.90;;;;;;4992165;28;20026;-73
2022/07/06 02:30:40;;;;;;;1.70;1.58;;;12.30;99.90;;;;;;4992264;28;20029;-73
2022/07/06 02:33:05;;;;;;;1.92;1.52;;;12.20;99.90;;;;;;4992235;28;20019;-73
2022/07/06 02:35:31;;;;;;;4.32;1.42;;;12.10;99.90;;;;;;4991912;28;20133;-73
2022/07/06 02:37:57;;;;;;;2.65;1.52;;;12.10;99.90;;;;;;4991408;28;20024;-73
2022/07/06 02:40:23;;;;;;;3.40;1.80;;;11.90;99.90;;;;;;4991772;28;20027;-73
2022/07/06 02:42:48;;;;;;;2.95;1.60;;;11.90;99.90;;;;;;4991683;28;20014;-73
2022/07/06 02:45:14;;;;;;;2.03;1.30;;;11.90;99.90;;;;;;4991430;28;20034;-73
2022/07/06 02:47:40;;;;;;;2.10;1.63;;;12.00;99.90;;;;;;4991752;28;20015;-73
2022/07/06 02:50:06;;;;;;;3.28;1.40;;;12.20;99.90;;;;;;4997813;28;20021;-73
2022/07/06 02:52:32;;;;;;;3.92;1.73;;;12.20;99.90;;;;;;4991849;28;20040;-73
2022/07/06 02:54:57;;;;;;;3.03;1.40;;;12.20;99.90;;;;;;4992192;28;20018;-73
2022/07/06 02:57:23;;;;;;;2.85;1.08;;;12.20;99.90;;;;;;4991826;28;20146;-73
2022/07/06 02:59:49;;;;;;;5.03;1.48;;;12.20;99.90;;;;;;4991851;28;20018;-73
2022/07/06 03:02:18;;;;;;;1.77;1.30;;;12.20;99.90;;;;;;4992036;28;20105;-73
2022/07/06 03:04:44;;;;;;;1.40;1.05;;;12.20;99.90;;;;;;4995135;28;20064;-73
2022/07/06 03:07:10;;;;;;;1.17;1.05;;;12.20;99.90;;;;;;5025360;23;20037;-74
2022/07/06 03:09:36;;;;;;;1.90;1.17;;;12.20;99.90;;;;;;5018355;28;20394;-74
2022/07/06 03:12:02;;;;;;;2.33;1.00;;;12.30;99.90;;;;;;5015699;28;20013;-75
2022/07/06 03:14:28;;;;;;;2.22;1.25;;;12.30;99.90;;;;;;5015251;28;20029;-74
2022/07/06 03:16:54;;;;;;;2.90;1.27;;;12.30;99.90;;;;;;5007103;28;20537;-75
2022/07/06 03:19:20;;;;;;;1.33;1.23;;;12.30;99.90;;;;;;4995667;28;20027;-75
2022/07/06 03:21:46;;;;;;;1.70;1.13;;;12.30;99.90;;;;;;4995866;28;20041;-75
2022/07/06 03:24:11;;;;;;;4.22;1.50;;;12.30;99.90;;;;;;4995607;28;20034;-75
2022/07/06 03:26:37;;;;;;;3.85;0.95;;;12.30;99.90;;;;;;4995776;28;20098;-74
2022/07/06 03:29:03;;;;;;;2.47;1.10;;;12.40;99.90;;;;;;4995412;28;20602;-75
2022/07/06 03:31:29;;;;;;;4.05;1.58;;;12.40;99.90;;;;;;4995507;28;20031;-75
2022/07/06 03:33:55;;;;;;;2.92;1.08;;;12.40;99.90;;;;;;4995287;28;20022;-75
2022/07/06 03:36:20;;;;;;;2.53;0.93;;;12.40;99.90;;;;;;4994375;28;20502;-74
2022/07/06 03:38:46;;;;;;;1.98;1.08;;;12.50;99.90;;;;;;5002220;28;20161;-75
2022/07/06 03:41:12;;;;;;;3.55;1.60;;;12.40;99.90;;;;;;4994115;28;20117;-74
2022/07/06 03:43:38;;;;;;;4.35;1.10;;;12.40;99.90;;;;;;4995531;28;20026;-74
2022/07/06 03:46:03;;;;;;;3.78;1.40;;;12.40;99.90;;;;;;5001606;28;20031;-74
2022/07/06 03:48:29;;;;;;;2.30;1.30;;;12.50;99.90;;;;;;4995305;28;20037;-74
2022/07/06 03:50:55;;;;;;;2.65;1.27;;;12.50;99.90;;;;;;4988163;28;20022;-74
2022/07/06 03:53:21;;;;;;;1.80;1.13;;;12.50;99.90;;;;;;4995076;28;20022;-74
2022/07/06 03:56:27;;;;;;;1.52;1.00;;;12.50;99.90;;;;;;4993534;28;20038;-74
2022/07/06 03:58:32;;;;;;;4.45;1.48;;;12.50;99.90;;;;;;4994986;28;20060;-74
2022/07/06 04:00:58;;;;;;;2.15;0.95;;;12.60;99.90;;;;;;4994590;28;20022;-74
2022/07/06 04:03:25;;;;;;;2.28;1.05;;;12.60;99.90;;;;;;4994999;28;20052;-74
2022/07/06 04:05:50;;;;;;;3.03;1.40;;;12.70;99.90;;;;;;4994953;28;20058;-74
2022/07/06 04:08:16;;;;;;;4.47;1.27;;;12.70;99.90;;;;;;4994810;28;20060;-75
2022/07/06 04:10:42;;;;;;;4.18;1.20;;;12.70;99.90;;;;;;4994767;28;20098;-74
2022/07/06 04:13:08;;;;;;;1.13;1.02;;;12.70;99.90;;;;;;4995010;28;20019;-75
2022/07/06 04:15:33;;;;;;;1.55;1.35;;;12.70;99.90;;;;;;4994178;28;20514;-75
2022/07/06 04:17:59;;;;;;;3.60;1.20;;;12.60;99.90;;;;;;4994705;28;20022;-75
2022/07/06 04:20:25;;;;;;;3.20;1.20;;;12.60;99.90;;;;;;4994919;28;20029;-74
2022/07/06 04:22:52;;;;;;;1.42;0.90;;;12.60;99.90;;;;;;4994653;28;20069;-74
2022/07/06 04:25:18;;;;;;;3.22;1.17;;;12.60;99.90;;;;;;4994469;28;20025;-75
2022/07/06 04:27:44;;;;;;;2.10;1.27;;;12.70;99.90;;;;;;4994698;28;20089;-74
2022/07/06 04:30:10;;;;;;;2.85;1.27;;;12.70;99.90;;;;;;4994503;28;20018;-75
2022/07/06 04:32:36;;;;;;;1.17;1.08;;;12.70;99.90;;;;;;4994483;28;20482;-74
2022/07/06 04:35:04;;;;;;;2.13;1.10;;;12.70;99.90;;;;;;4994338;28;20026;-74
2022/07/06 04:37:30;;;;;;;2.13;1.08;;;12.70;99.90;;;;;;4985023;23;20066;-77
2022/07/06 04:39:55;;;;;;;3.15;1.33;;;12.70;99.90;;;;;;4936607;29;20036;-78
2022/07/06 04:42:21;;;;;;;1.98;1.08;;;12.60;99.90;;;;;;4936842;29;20496;-78
2022/07/06 04:44:47;;;;;;;2.05;1.15;;;12.60;99.90;;;;;;4936242;29;20103;-78
2022/07/06 04:47:14;;;;;;;2.15;1.08;;;12.60;99.90;;;;;;4936275;28;20388;-78
2022/07/06 04:49:39;;;;;;;3.33;1.13;;;12.60;99.90;;;;;;4936206;29;20035;-78
2022/07/06 04:52:06;;;;;;;2.42;1.10;;;12.60;99.90;;;;;;4935743;29;20026;-78
2022/07/06 04:54:31;;;;;;;2.85;1.38;;;12.60;99.90;;;;;;4929249;29;20028;-79
2022/07/06 04:56:57;;;;;;;2.83;1.27;;;12.70;99.90;;;;;;4935124;29;20047;-78
2022/07/06 04:59:23;;;;;;;1.80;1.00;;;12.70;99.90;;;;;;4935593;29;20019;-78
2022/07/06 05:01:49;;;;;;;2.58;1.13;;;12.80;99.90;;;;;;4935197;29;20027;-78
2022/07/06 05:04:18;;;;;;;3.05;1.00;;;12.70;99.90;;;;;;4936056;29;20417;-78
2022/07/06 05:06:44;;;;;;;1.83;1.15;;;12.70;99.90;;;;;;4935371;29;20630;-78
2022/07/06 05:09:09;;;;;;;4.60;1.30;;;12.80;99.90;;;;;;4935758;29;20053;-78
2022/07/06 05:11:35;;;;;;;3.65;1.27;;;12.90;99.90;;;;;;4935810;29;20055;-78
2022/07/06 05:14:01;;;;;;;3.63;1.73;;;12.90;99.90;;;;;;4935794;29;20098;-78
2022/07/06 05:16:27;;;;;;;3.63;1.70;;;12.90;99.90;;;;;;4935574;29;20119;-79
2022/07/06 05:18:52;;;;;;;2.38;1.02;;;13.00;99.90;;;;;;4935786;29;20020;-78
2022/07/06 05:21:18;;;;;;;3.65;1.27;;;13.10;99.90;;;;;;4935189;29;20027;-78
2022/07/06 05:23:44;;;;;;;4.22;1.33;;;13.10;99.90;;;;;;4935295;29;20393;-78
2022/07/06 05:26:10;;;;;;;1.50;1.10;;;13.30;99.90;;;;;;4934557;29;20047;-78
2022/07/06 05:28:35;;;;;;;5.22;1.40;;;13.50;99.90;;;;;;4935653;29;20099;-78
2022/07/06 05:31:01;;;;;;;3.50;1.33;;;13.70;99.90;;;;;;4935304;29;20437;-78
2022/07/06 05:33:30;;;;;;;2.55;1.55;;;13.80;99.90;;;;;;4935577;29;20019;-78
2022/07/06 05:35:55;;;;;;;3.92;1.45;;;13.90;99.90;;;;;;4934820;29;20040;-78
2022/07/06 05:38:21;;;;;;;2.80;1.35;;;14.10;99.90;;;;;;4961177;23;20077;-74
2022/07/06 05:40:47;;;;;;;3.30;1.50;;;14.20;99.90;;;;;;4934784;29;20019;-74
2022/07/06 05:43:13;;;;;;;4.13;1.30;;;14.40;99.90;;;;;;4935019;29;20028;-73
2022/07/06 05:45:39;;;;;;;2.13;1.25;;;14.50;99.90;;;;;;4935141;29;20477;-73
2022/07/06 05:50:49;;;;;;;2.88;1.27;;;14.90;99.90;;;;;;4942044;29;20440;-73
2022/07/06 05:53:14;;;;;;;3.33;1.17;;;15.20;99.90;;;;;;4935020;29;20468;-73
2022/07/06 05:55:40;;;;;;;2.55;1.17;;;15.40;99.90;;;;;;4934955;29;20032;-73
2022/07/06 05:58:06;;;;;;;5.15;1.10;;;15.50;99.90;;;;;;4934653;28;20366;-73
2022/07/06 06:00:32;;;;;;;4.40;1.98;;;15.70;99.90;;;;;;4934651;29;20035;-74
2022/07/06 06:02:58;;;;;;;3.83;1.88;;;15.70;99.90;;;;;;4934644;29;20106;-73
2022/07/06 06:05:24;;;;;;;6.93;2.42;;;15.70;99.90;;;;;;4934868;29;20130;-73
2022/07/06 06:07:51;;;;;;;3.92;2.20;;;15.70;99.90;;;;;;4934351;29;20575;-73
2022/07/06 06:10:18;;;;;;;8.30;1.95;;;15.60;99.90;;;;;;4934792;29;20035;-73
2022/07/06 06:12:44;;;;;;;4.80;2.65;;;15.60;99.90;;;;;;4934643;29;20098;-75
2022/07/06 06:15:11;;;;;;;5.88;3.83;;;15.80;99.90;;;;;;4934599;29;20468;-74
2022/07/06 06:17:38;;;;;;;7.25;3.40;;;16.00;99.90;;;;;;4934577;29;20044;-74
2022/07/06 06:20:06;;;;;;;6.15;3.80;;;16.30;99.90;;;;;;4934635;29;20019;-73
2022/07/06 06:22:47;;;;;;;10.75;4.03;;;16.60;99.90;;;;;;4933205;29;20050;-73
2022/07/06 06:25:17;;;;;;;8.43;4.28;;;16.80;99.90;;;;;;4933020;29;20038;-75
2022/07/06 06:27:43;;;;;;;5.40;3.83;;;17.10;99.90;;;;;;4932574;29;20032;-74
2022/07/06 06:30:10;;;;;;;7.90;4.95;;;17.50;99.90;;;;;;4934420;29;20082;-74
2022/07/06 06:32:36;;;;;;;7.40;3.83;;;17.80;99.90;;;;;;4934253;29;20552;-76
2022/07/06 06:35:02;;;;;;;6.10;4.28;;;18.00;99.90;;;;;;4934051;29;20102;-73
2022/07/06 06:37:27;;;;;;;7.18;3.72;;;18.20;97.30;;;;;;4960245;23;20062;-77
2022/07/06 06:39:53;;;;;;;8.55;4.10;;;18.10;96.90;;;;;;4953300;28;20110;-77
2022/07/06 06:42:19;;;;;;;6.15;3.92;;;18.00;96.80;;;;;;4948421;28;20066;-77
2022/07/06 06:44:45;;;;;;;8.38;4.30;;;18.00;99.90;;;;;;4948358;28;20114;-77
2022/07/06 06:47:10;;;;;;;9.82;4.85;;;18.10;98.70;;;;;;4951629;28;20086;-76
2022/07/06 06:49:36;;;;;;;12.50;4.32;;;18.20;98.80;;;;;;4951166;28;20102;-76
2022/07/06 06:52:02;;;;;;;7.38;3.35;;;18.20;94.30;;;;;;4946391;28;20094;-76
2022/07/06 06:54:28;;;;;;;7.10;3.03;;;18.30;97.10;;;;;;4945257;28;20118;-76
2022/07/06 06:56:53;;;;;;;8.15;3.90;;;18.20;97.10;;;;;;4948039;28;20074;-76
2022/07/06 06:59:19;;;;;;;8.07;3.95;;;18.30;99.90;;;;;;4953384;28;20030;-76
2022/07/06 07:01:45;;;;;;;7.57;3.40;;;18.40;98.60;;;;;;4953279;28;20023;-76
2022/07/06 07:04:12;;;;;;;6.40;3.38;;;18.50;99.80;;;;;;4953130;28;20027;-76
2022/07/06 07:06:38;;;;;;;3.95;2.95;;;18.30;95.90;;;;;;4952587;28;20135;-76
2022/07/06 07:09:04;;;;;;;6.55;2.67;;;18.20;98.90;;;;;;4952354;28;20051;-76
2022/07/06 07:11:31;;;;;;;3.05;2.30;;;18.20;99.90;;;;;;4953175;28;20027;-77
2022/07/06 07:13:57;;;;;;;6.40;2.92;;;18.10;98.20;;;;;;4953099;28;20034;-76
2022/07/06 07:16:26;;;;;;;5.28;2.45;;;18.20;99.90;;;;;;4952707;28;20043;-76
2022/07/06 07:18:52;;;;;;;4.70;2.70;;;18.20;98.50;;;;;;4952924;28;20027;-76
2022/07/06 07:21:18;;;;;;;6.40;3.05;;;18.20;99.90;;;;;;4952760;28;20056;-77
2022/07/06 07:23:44;;;;;;;7.43;2.95;;;18.30;99.90;;;;;;4952293;28;20030;-76
2022/07/06 07:26:10;;;;;;;6.95;3.10;;;18.30;99.90;;;;;;4952830;28;20027;-76
2022/07/06 07:28:35;;;;;;;5.80;3.05;;;18.40;99.90;;;;;;4952801;28;20047;-76
2022/07/06 07:31:01;;;;;;;5.38;3.15;;;18.50;99.90;;;;;;4953079;28;20019;-76
2022/07/06 07:33:27;;;;;;;4.43;3.17;;;18.50;99.90;;;;;;4953166;28;20147;-76
2022/07/06 07:35:53;;;;;;;6.30;3.30;;;18.60;99.90;;;;;;4952993;28;20062;-76
2022/07/06 07:38:19;;;;;;;6.25;3.38;;;18.70;99.90;;;;;;4952505;28;20074;-77
2022/07/06 07:40:44;;;;;;;7.15;3.25;;;18.80;99.90;;;;;;4952551;28;20020;-77
2022/07/06 07:43:10;;;;;;;4.65;2.72;;;18.80;99.90;;;;;;4952483;28;20039;-77
2022/07/06 07:45:36;;;;;;;4.72;3.50;;;18.80;99.90;;;;;;4952485;28;20031;-76
2022/07/06 07:48:02;;;;;;;7.45;3.42;;;18.70;99.90;;;;;;4951947;28;20023;-76
2022/07/06 07:50:29;;;;;;;7.20;4.00;;;18.60;99.90;;;;;;4954281;28;20411;-77
2022/07/06 07:52:55;;;;;;;6.13;4.15;;;18.60;99.90;;;;;;4955061;28;20042;-76
2022/07/06 07:55:20;;;;;;;6.72;4.60;;;18.60;99.90;;;;;;4962650;28;20465;-77
2022/07/06 07:57:46;;;;;;;7.93;4.60;;;18.60;99.90;;;;;;4955699;28;20106;-77
2022/07/06 08:00:13;;;;;;;9.25;5.18;;;18.80;99.90;;;;;;4956471;28;20023;-76
2022/07/06 08:02:39;;;;;;;7.78;5.10;;;19.30;99.90;;;;;;4949653;28;20034;-77
2022/07/06 08:05:05;;;;;;;7.15;4.88;;;19.90;99.90;;;;;;4956390;28;21372;-76
2022/07/06 09:07:04;;;;;;;1.60;1.42;;;25.90;61.10;;;;;;5701704;23;20055;-73
2022/07/06 09:09:31;;;;;;;1.73;1.30;;;26.10;62.30;;;;;;4954135;28;20027;-73
2022/07/06 09:11:57;;;;;;;2.85;1.52;;;25.90;61.50;;;;;;4955038;28;20070;-75
2022/07/06 09:14:22;;;;;;;3.15;1.67;;;25.60;62.70;;;;;;4955187;28;20027;-76
2022/07/06 09:17:01;;;;;;;3.05;1.42;;;25.50;62.10;;;;;;4954994;28;20047;-75
2022/07/06 09:19:27;;;;;;;4.20;1.40;;;25.60;62.80;;;;;;4955232;28;20035;-76
2022/07/06 09:21:53;;;;;;;2.53;1.40;;;25.30;63.00;;;;;;4954922;28;20015;-76
2022/07/06 09:24:19;;;;;;;2.97;1.02;;;24.80;64.90;;;;;;4954851;28;20020;-76
2022/07/06 09:26:47;;;;;;;1.00;0.80;;;24.40;66.10;;;;;;4954757;28;20034;-76
2022/07/06 09:29:13;;;;;;;1.70;1.20;;;24.10;68.20;;;;;;4954558;28;20031;-76
2022/07/06 09:31:39;;;;;;;2.90;1.42;;;24.00;69.10;;;;;;4961293;28;20416;-76
2022/07/06 09:34:07;;;;;;;2.38;1.20;;;24.00;70.50;;;;;;4954610;28;20035;-77
2022/07/06 09:36:47;;;;;;;2.33;1.50;;;24.90;69.10;;;;;;4954616;28;20098;-76
2022/07/06 09:39:24;;;;;;;2.80;1.98;;;25.50;64.70;;;;;;4949371;28;20484;-76
2022/07/06 09:41:59;;;;;;;2.20;1.58;;;25.80;64.80;;;;;;4948480;28;20027;-75
2022/07/06 09:44:31;;;;;;;3.05;1.60;;;26.40;62.50;;;;;;4947837;28;20031;-76
2022/07/06 09:46:59;;;;;;;1.90;1.35;;;26.40;62.40;;;;;;4954585;28;20020;-76
2022/07/06 09:49:25;;;;;;;1.75;1.30;;;26.50;62.50;;;;;;4954374;28;20067;-76
2022/07/06 09:52:11;;;;;;;2.83;1.52;;;26.40;63.40;;;;;;4954639;28;20484;-76
2022/07/06 09:54:40;;;;;;;1.20;1.10;;;26.00;63.00;;;;;;4948976;28;20035;-76
2022/07/06 09:57:06;;;;;;;1.52;1.00;;;25.90;64.80;;;;;;4960614;28;20129;-76
2022/07/06 09:59:35;;;;;;;1.60;1.17;;;25.80;63.70;;;;;;4954268;28;20031;-75
2022/07/06 10:02:07;;;;;;;2.42;1.30;;;25.90;64.10;;;;;;4954017;28;20492;-76
2022/07/06 10:04:33;;;;;;;1.35;1.10;;;26.20;62.40;;;;;;4953884;28;20078;-76
2022/07/06 11:07:17;;;;;;;2.10;1.80;;;29.40;53.10;;;;;;5740331;23;20413;-78
2022/07/06 11:09:56;;;;;;;1.77;1.10;;;30.50;53.50;;;;;;4970947;28;20401;-77
2022/07/06 11:12:23;;;;;;;0.90;0.85;;;31.70;51.70;;;;;;4971098;28;20062;-77
2022/07/06 11:14:50;;;;;;;1.50;1.08;;;31.90;49.00;;;;;;4971473;28;20086;-77
2022/07/06 11:17:17;;;;;;;2.70;1.95;;;30.60;49.50;;;;;;4971632;28;20038;-77
2022/07/06 11:19:57;;;;;;;2.97;2.67;;;29.60;53.90;;;;;;4971435;28;20019;-77
2022/07/06 11:22:24;;;;;;;3.10;2.25;;;29.10;53.90;;;;;;4971245;28;20031;-77
2022/07/06 11:24:51;;;;;;;2.75;1.55;;;30.20;54.00;;;;;;4972653;28;20047;-77
2022/07/06 11:27:17;;;;;;;3.63;2.20;;;30.20;50.60;;;;;;4975183;28;20081;-77
2022/07/06 11:29:44;;;;;;;3.63;2.10;;;29.90;52.20;;;;;;4975069;28;20030;-77
2022/07/06 11:32:14;;;;;;;2.40;1.83;;;31.70;51.50;;;;;;4974828;28;20484;-77
2022/07/06 11:34:44;;;;;;;1.30;1.13;;;32.10;48.20;;;;;;4975232;28;20523;-77
2022/07/06 11:37:14;;;;;;;4.47;1.40;;;31.80;47.60;;;;;;4957899;28;20055;-77
2022/07/06 11:39:45;;;;;;;1.55;0.98;;;31.70;48.60;;;;;;4974075;28;20023;-77
2022/07/06 11:42:13;;;;;;;1.55;0.43;;;31.90;49.00;;;;;;4974684;28;20546;-78
2022/07/06 11:44:41;;;;;;;0.85;0.20;;;32.00;47.80;;;;;;4974892;28;20019;-77
2022/07/06 11:47:09;;;;;;;0.20;0.20;;;33.30;45.90;;;;;;4961974;28;20023;-77
2022/07/06 11:49:36;;;;;;;0.40;0.20;;;33.90;44.10;;;;;;4974939;28;20376;-77
2022/07/06 11:52:10;;;;;;;0.10;0.10;;;35.00;44.40;;;;;;4974614;28;20023;-78
2022/07/06 11:54:36;;;;;;;1.52;0.13;;;34.30;43.40;;;;;;4973926;28;20484;-78
2022/07/06 11:57:03;;;;;;;0.10;0.10;;;32.10;45.70;;;;;;4974603;28;20038;-78
2022/07/06 11:59:37;;;;;;;0.15;0.15;;;29.80;50.60;;;;;;4974350;28;20432;-77
2022/07/06 12:02:08;;;;;;;2.40;0.30;;;28.40;53.90;;;;;;4974472;28;20035;-77
2022/07/06 12:04:36;;;;;;;0.45;0.30;;;27.50;57.90;;;;;;4974633;28;20019;-78
2022/07/06 13:06:37;;;;;;;3.10;1.00;;;23.50;94.50;;;;;;6059744;23;20005;-75
2022/07/06 13:09:02;;;;;;;0.80;0.63;;;23.80;96.10;;;;;;4963832;28;20062;-75
2022/07/06 13:11:28;;;;;;;2.60;0.90;;;24.00;94.60;;;;;;4973388;28;20065;-75
2022/07/06 13:13:54;;;;;;;2.75;0.98;;;24.00;94.60;;;;;;4972365;28;20568;-74
2022/07/06 13:16:22;;;;;;;1.05;0.88;;;23.80;94.80;;;;;;4971471;28;20039;-75
2022/07/06 13:18:48;;;;;;;2.55;0.65;;;23.60;95.40;;;;;;4972710;28;20050;-74
2022/07/06 13:21:13;;;;;;;0.50;0.50;;;23.40;98.60;;;;;;4973065;28;20052;-74
2022/07/06 13:23:39;;;;;;;3.88;0.60;;;23.20;99.80;;;;;;4971851;28;20026;-74
2022/07/06 13:26:05;;;;;;;0.75;0.60;;;23.40;99.90;;;;;;4970742;28;20081;-75
2022/07/06 13:28:31;;;;;;;1.00;0.60;;;23.60;99.90;;;;;;4970790;28;20026;-75
2022/07/06 13:30:57;;;;;;;0.55;0.52;;;23.80;98.50;;;;;;4970670;28;20030;-74
2022/07/06 13:33:22;;;;;;;1.00;0.70;;;23.70;98.10;;;;;;4970444;28;20404;-75
2022/07/06 13:35:48;;;;;;;0.95;0.80;;;23.50;97.80;;;;;;4970555;28;20025;-74
2022/07/06 13:38:14;;;;;;;0.60;0.47;;;23.00;99.90;;;;;;4964175;28;20035;-74
2022/07/06 13:40:41;;;;;;;1.25;0.80;;;22.60;99.90;;;;;;4970202;28;20015;-75
2022/07/06 13:43:06;;;;;;;1.70;0.80;;;22.30;99.90;;;;;;4971812;28;20019;-75
2022/07/06 13:45:32;;;;;;;4.60;0.90;;;22.20;99.90;;;;;;4972553;28;20019;-74
2022/07/06 13:47:58;;;;;;;2.75;0.77;;;22.00;99.90;;;;;;4971324;28;20504;-74
2022/07/06 13:50:25;;;;;;;2.15;0.70;;;22.10;99.90;;;;;;4972515;28;20031;-74
2022/07/06 13:52:51;;;;;;;1.55;0.60;;;22.30;99.90;;;;;;4972438;28;20049;-76
2022/07/06 13:55:17;;;;;;;1.27;0.75;;;22.40;99.90;;;;;;4971026;28;20383;-76
2022/07/06 13:57:43;;;;;;;1.42;0.77;;;22.50;99.90;;;;;;4971833;28;20046;-75
2022/07/06 14:00:09;;;;;;;1.50;0.80;;;22.40;99.90;;;;;;4972417;28;20027;-75
2022/07/06 14:02:35;;;;;;;2.08;1.10;;;22.50;99.90;;;;;;4972036;28;20011;-74
2022/07/06 14:05:01;;;;;;;1.30;0.88;;;22.60;99.90;;;;;;4972193;28;20015;-75
2022/07/06 15:07:00;;;;;;;1.63;0.82;;;27.30;71.60;;;;;;5946024;23;20051;-74
2022/07/06 15:09:28;;;;;;;2.70;0.90;;;29.20;63.40;;;;;;4972411;28;20399;-74
2022/07/06 15:11:54;;;;;;;2.65;0.88;;;30.60;60.50;;;;;;4977455;28;20022;-73
2022/07/06 15:14:20;;;;;;;4.40;1.30;;;29.80;58.40;;;;;;4977639;28;20026;-73
2022/07/06 15:16:45;;;;;;;2.10;1.10;;;28.20;61.20;;;;;;4976649;28;20031;-73
2022/07/06 15:19:11;;;;;;;2.65;1.17;;;27.00;65.70;;;;;;4977542;28;20084;-73
2022/07/06 15:21:37;;;;;;;1.48;1.10;;;26.10;68.60;;;;;;4977210;28;20042;-73
2022/07/06 15:24:03;;;;;;;4.72;1.52;;;25.70;73.30;;;;;;4977252;28;20062;-73
2022/07/06 15:26:29;;;;;;;1.20;1.00;;;26.70;73.00;;;;;;4977736;28;20037;-74
2022/07/06 15:28:55;;;;;;;4.65;1.58;;;28.10;69.30;;;;;;4977234;28;20019;-73
2022/07/06 15:31:20;;;;;;;1.02;0.93;;;28.30;64.40;;;;;;4977773;28;20031;-76
2022/07/06 15:33:46;;;;;;;2.50;0.85;;;28.50;63.40;;;;;;4977871;28;20483;-76
2022/07/06 15:36:12;;;;;;;1.80;0.75;;;28.60;62.80;;;;;;4975424;28;20038;-75
2022/07/06 15:38:38;;;;;;;1.80;0.60;;;29.00;61.40;;;;;;4973430;28;20033;-75
2022/07/06 15:41:04;;;;;;;0.85;0.80;;;30.10;64.10;;;;;;4974982;28;20022;-74
2022/07/06 15:43:31;;;;;;;1.15;1.00;;;30.50;58.30;;;;;;4974247;28;20027;-74
2022/07/06 15:46:00;;;;;;;2.90;0.98;;;30.10;56.60;;;;;;4974348;28;20084;-74
2022/07/06 15:48:26;;;;;;;1.20;0.80;;;29.30;59.60;;;;;;4974672;28;20031;-73
2022/07/06 15:50:52;;;;;;;1.63;1.00;;;29.20;60.80;;;;;;4973371;28;20050;-74
2022/07/06 15:53:19;;;;;;;1.67;1.10;;;29.50;59.20;;;;;;4974234;28;20666;-74
2022/07/06 15:55:45;;;;;;;1.85;0.80;;;29.10;60.10;;;;;;4974278;28;20022;-75
2022/07/06 15:58:11;;;;;;;3.45;1.23;;;29.10;60.60;;;;;;4974234;28;20038;-74
2022/07/06 16:00:37;;;;;;;2.60;0.82;;;28.40;60.40;;;;;;4974503;28;20806;-75
2022/07/06 16:03:03;;;;;;;2.42;0.90;;;27.90;63.10;;;;;;4974401;28;20036;-74
2022/07/06 16:05:29;;;;;;;1.58;0.88;;;27.10;65.00;;;;;;4975003;28;20098;-75
2022/07/06 17:07:29;;;;;;;2.00;1.00;;;24.40;92.60;;;;;;5750184;23;20047;-80
2022/07/06 17:09:54;;;;;;;1.60;0.90;;;24.20;93.10;;;;;;4969031;28;20042;-80
2022/07/06 17:12:20;;;;;;;2.17;1.33;;;24.00;94.40;;;;;;4970244;28;20035;-77
2022/07/06 17:14:46;;;;;;;2.03;1.10;;;23.90;96.30;;;;;;4950691;28;20071;-77
2022/07/06 17:17:12;;;;;;;2.50;1.30;;;23.90;96.60;;;;;;4966593;28;20487;-75
2022/07/06 17:19:37;;;;;;;3.33;1.50;;;23.90;97.30;;;;;;4972934;28;20453;-74
2022/07/06 17:22:03;;;;;;;2.30;1.48;;;23.70;97.70;;;;;;4971405;28;20022;-74
2022/07/06 17:24:29;;;;;;;4.13;1.50;;;23.40;99.20;;;;;;4973167;28;20364;-75
2022/07/06 17:26:55;;;;;;;4.40;1.73;;;23.00;99.90;;;;;;4972844;28;20022;-74
2022/07/06 17:29:21;;;;;;;4.03;1.80;;;22.60;99.90;;;;;;4972802;28;20027;-74
2022/07/06 17:31:47;;;;;;;4.13;1.45;;;22.50;99.90;;;;;;4973205;28;20522;-75
2022/07/06 17:34:13;;;;;;;3.65;1.63;;;22.60;99.90;;;;;;4972776;28;20120;-74
2022/07/06 17:36:39;;;;;;;4.30;1.67;;;22.70;99.90;;;;;;4972696;28;20113;-74
2022/07/06 17:39:04;;;;;;;4.15;1.70;;;22.80;99.90;;;;;;4968164;28;20066;-74
2022/07/06 17:41:30;;;;;;;2.90;1.63;;;22.70;99.90;;;;;;4972475;28;20586;-74
2022/07/06 17:43:56;;;;;;;4.55;1.75;;;22.70;99.90;;;;;;4972391;28;20081;-74
2022/07/06 17:46:21;;;;;;;3.83;1.40;;;22.70;99.90;;;;;;4972962;28;20113;-75